Time;durP1;ratioP1;P1;durP2;ratioP2;P2;SDS_P1;SDS_P2;PMS_P1;PMS_P2;Temp;Humidity;BMP_temperature;BMP_pressure;BME280_temperature;BME280_humidity;BME280_pressure;Samples;Min_cycle;Max_cycle;Signal;HPM_P1;HPM_P2
2021/09/25 00:00:21;;;;;;;10.95;7.80;;;14.30;97.40;;;;;;4875991;29;20064;-80
2021/09/25 00:02:47;;;;;;;8.03;6.77;;;14.30;97.40;;;;;;4876782;29;20043;-80
2021/09/25 00:05:13;;;;;;;11.13;7.65;;;14.20;97.40;;;;;;4894901;29;20048;-80
2021/09/25 00:07:39;;;;;;;9.85;7.10;;;14.20;97.50;;;;;;4872432;29;20054;-80
2021/09/25 00:10:06;;;;;;;10.90;7.38;;;14.20;97.50;;;;;;4891474;29;20508;-80
2021/09/25 00:12:31;;;;;;;11.93;7.95;;;14.20;97.60;;;;;;4895127;29;20032;-79
2021/09/25 00:14:57;;;;;;;11.93;7.78;;;14.20;97.60;;;;;;4861250;29;20032;-80
2021/09/25 00:17:23;;;;;;;10.45;7.82;;;14.10;97.60;;;;;;4859131;29;20048;-80
2021/09/25 00:19:49;;;;;;;12.60;7.53;;;14.20;97.70;;;;;;4836107;29;20033;-80
2021/09/25 00:22:15;;;;;;;11.88;7.55;;;14.10;97.70;;;;;;4893851;29;20125;-80
2021/09/25 00:24:40;;;;;;;12.15;8.13;;;14.10;97.70;;;;;;4860685;29;20040;-79
2021/09/25 00:27:06;;;;;;;9.52;6.97;;;14.20;97.70;;;;;;4876221;29;20049;-80
2021/09/25 00:29:32;;;;;;;11.23;6.68;;;14.10;97.70;;;;;;4891773;29;20058;-80
2021/09/25 00:31:58;;;;;;;10.73;7.68;;;14.10;97.80;;;;;;4893003;29;20029;-79
2021/09/25 00:34:23;;;;;;;11.13;7.90;;;14.10;97.80;;;;;;4894286;29;20040;-80
2021/09/25 00:36:49;;;;;;;11.45;7.40;;;14.00;97.80;;;;;;4892815;29;20363;-79
2021/09/25 00:39:15;;;;;;;11.13;7.90;;;14.00;97.80;;;;;;4892851;29;20460;-80
2021/09/25 00:41:41;;;;;;;10.88;7.95;;;14.00;97.80;;;;;;4860106;29;20037;-80
2021/09/25 00:44:06;;;;;;;12.68;7.88;;;14.00;98.00;;;;;;4894160;29;20024;-80
2021/09/25 00:46:33;;;;;;;12.05;7.85;;;14.00;97.80;;;;;;4860891;29;20051;-80
2021/09/25 00:48:59;;;;;;;11.60;7.72;;;14.00;97.80;;;;;;4875912;29;20041;-80
2021/09/25 00:51:25;;;;;;;12.10;8.15;;;13.90;97.80;;;;;;4862487;29;20032;-80
2021/09/25 00:53:50;;;;;;;11.50;7.82;;;13.90;97.90;;;;;;4876766;29;20095;-80
2021/09/25 00:56:16;;;;;;;13.73;8.45;;;13.90;97.90;;;;;;4876757;29;20469;-80
2021/09/25 00:58:42;;;;;;;11.02;7.88;;;13.90;97.90;;;;;;4875701;29;20164;-79
2021/09/25 01:01:08;;;;;;;10.52;7.05;;;13.90;98.00;;;;;;4891509;29;20028;-80
2021/09/25 01:03:34;;;;;;;11.25;8.05;;;13.90;98.00;;;;;;4893594;29;20036;-80
2021/09/25 01:06:00;;;;;;;11.80;8.45;;;13.90;98.00;;;;;;4874388;29;20097;-79
2021/09/25 01:08:26;;;;;;;11.93;7.82;;;13.90;98.20;;;;;;4893029;29;20063;-79
2021/09/25 01:10:53;;;;;;;11.80;8.18;;;13.90;98.00;;;;;;4860755;29;20045;-79
2021/09/25 01:13:20;;;;;;;12.95;8.50;;;14.00;97.90;;;;;;4877913;29;20112;-80
2021/09/25 01:15:46;;;;;;;10.15;8.05;;;14.00;97.90;;;;;;4892637;29;20036;-80
2021/09/25 01:18:12;;;;;;;14.43;7.90;;;14.10;97.90;;;;;;4867004;29;20063;-80
2021/09/25 01:20:38;;;;;;;13.13;8.30;;;14.20;97.90;;;;;;4873567;29;20056;-80
2021/09/25 01:23:04;;;;;;;11.85;7.57;;;14.30;97.90;;;;;;4892654;29;20096;-80
2021/09/25 01:25:31;;;;;;;10.75;8.13;;;14.30;97.80;;;;;;4892262;29;20049;-80
2021/09/25 01:27:58;;;;;;;10.18;8.00;;;14.40;97.70;;;;;;4875800;29;20044;-80
2021/09/25 01:30:24;;;;;;;9.75;7.18;;;14.50;97.70;;;;;;4892348;29;20036;-80
2021/09/25 01:32:51;;;;;;;11.02;7.57;;;14.60;97.60;;;;;;4894936;29;20112;-80
2021/09/25 01:35:20;;;;;;;12.20;7.80;;;14.60;97.50;;;;;;4897251;29;20040;-79
2021/09/25 01:37:47;;;;;;;11.65;7.30;;;14.70;97.40;;;;;;4895529;29;20047;-79
2021/09/25 01:40:15;;;;;;;10.57;6.60;;;14.70;97.40;;;;;;4880545;29;20025;-81
2021/09/25 01:42:41;;;;;;;9.88;7.35;;;14.80;97.30;;;;;;4886469;29;20040;-78
2021/09/25 01:45:07;;;;;;;11.02;7.38;;;14.80;97.20;;;;;;4900735;29;20100;-79
2021/09/25 01:47:33;;;;;;;10.90;7.75;;;14.90;97.20;;;;;;4882673;29;20036;-79
2021/09/25 01:50:02;;;;;;;11.63;7.05;;;14.90;97.10;;;;;;4893957;29;20040;-79
2021/09/25 01:52:28;;;;;;;9.73;7.05;;;14.90;97.00;;;;;;4897222;29;20028;-79
2021/09/25 01:54:54;;;;;;;13.82;7.72;;;14.90;97.00;;;;;;4877182;29;20056;-79
2021/09/25 01:57:20;;;;;;;10.02;7.05;;;15.00;96.90;;;;;;4894382;29;20085;-79
2021/09/25 01:59:46;;;;;;;12.02;7.05;;;15.00;96.80;;;;;;4876993;29;20309;-80
2021/09/25 02:02:12;;;;;;;9.80;6.88;;;15.00;96.80;;;;;;4878557;29;20036;-80
2021/09/25 02:04:45;;;;;;;9.25;6.50;;;15.10;96.70;;;;;;4879194;29;20033;-80
2021/09/25 02:07:11;;;;;;;9.18;6.53;;;15.10;96.70;;;;;;4847726;29;20539;-80
2021/09/25 02:09:37;;;;;;;11.60;7.05;;;15.10;96.60;;;;;;4863723;29;20067;-80
2021/09/25 02:12:03;;;;;;;9.43;6.82;;;15.10;96.60;;;;;;4879906;29;20093;-79
2021/09/25 02:14:28;;;;;;;8.63;6.43;;;15.10;96.70;;;;;;4879330;29;20401;-80
2021/09/25 02:16:54;;;;;;;9.35;6.82;;;15.10;96.50;;;;;;4894722;29;20043;-80
2021/09/25 02:19:20;;;;;;;8.75;6.65;;;15.10;96.40;;;;;;4859597;29;20557;-80
2021/09/25 02:21:45;;;;;;;9.57;6.38;;;15.10;96.40;;;;;;4861375;29;20039;-80
2021/09/25 02:24:13;;;;;;;10.82;7.10;;;15.10;96.40;;;;;;4884270;29;20036;-80
2021/09/25 02:26:38;;;;;;;9.55;7.00;;;15.10;96.30;;;;;;4896548;29;20041;-80
2021/09/25 02:29:04;;;;;;;8.75;6.68;;;15.10;96.30;;;;;;4886924;29;20098;-79
2021/09/25 02:31:30;;;;;;;11.20;6.97;;;15.10;96.30;;;;;;4876368;29;20048;-79
2021/09/25 02:33:56;;;;;;;9.73;7.25;;;15.10;96.20;;;;;;4879616;29;20032;-79
2021/09/25 02:36:21;;;;;;;12.27;7.20;;;15.10;96.20;;;;;;4894516;29;20049;-79
2021/09/25 02:38:47;;;;;;;9.90;6.30;;;15.10;96.20;;;;;;4877075;29;20036;-80
2021/09/25 02:41:13;;;;;;;9.60;6.80;;;15.10;96.20;;;;;;4877501;29;20052;-79
2021/09/25 02:43:38;;;;;;;9.70;7.53;;;15.10;96.10;;;;;;4877977;29;20025;-79
2021/09/25 02:46:04;;;;;;;8.80;7.00;;;15.20;96.10;;;;;;4862930;29;20470;-79
2021/09/25 02:48:30;;;;;;;11.20;7.20;;;15.20;96.10;;;;;;4895113;29;20075;-79
2021/09/25 02:50:55;;;;;;;10.98;6.93;;;15.20;96.10;;;;;;4864517;29;20607;-79
2021/09/25 02:53:21;;;;;;;11.77;7.38;;;15.20;96.10;;;;;;4862907;29;20155;-80
2021/09/25 02:55:47;;;;;;;13.25;7.32;;;15.20;96.00;;;;;;4893391;29;20072;-79
2021/09/25 02:58:12;;;;;;;9.75;6.75;;;15.20;96.00;;;;;;4879120;29;20036;-79
2021/09/25 03:00:38;;;;;;;12.23;6.95;;;15.20;96.00;;;;;;4896543;29;20040;-79
2021/09/25 03:03:04;;;;;;;9.80;7.13;;;15.20;96.00;;;;;;4831346;29;20040;-79
2021/09/25 03:05:30;;;;;;;10.75;7.18;;;15.20;96.00;;;;;;4880766;29;20052;-80
2021/09/25 03:07:56;;;;;;;10.73;7.10;;;15.20;96.00;;;;;;4895788;29;20051;-79
2021/09/25 03:10:22;;;;;;;10.52;7.13;;;15.20;96.00;;;;;;4878653;29;20059;-78
2021/09/25 03:12:47;;;;;;;10.77;7.47;;;15.20;96.00;;;;;;4893234;29;20044;-79
2021/09/25 03:15:13;;;;;;;12.75;7.50;;;15.20;96.00;;;;;;4873830;29;20813;-79
2021/09/25 03:17:38;;;;;;;11.88;8.15;;;15.20;96.00;;;;;;4864454;29;20564;-79
2021/09/25 03:20:06;;;;;;;12.00;7.55;;;15.20;95.90;;;;;;4895566;29;20115;-79
2021/09/25 03:22:31;;;;;;;12.38;8.02;;;15.20;95.90;;;;;;4878534;29;20037;-79
2021/09/25 03:24:57;;;;;;;10.75;7.45;;;15.20;95.90;;;;;;4878687;29;20541;-79
2021/09/25 03:27:24;;;;;;;12.45;8.07;;;15.20;95.90;;;;;;4879378;29;20037;-79
2021/09/25 03:29:51;;;;;;;11.57;7.55;;;15.20;95.90;;;;;;4879308;29;20140;-78
2021/09/25 03:32:18;;;;;;;11.88;8.10;;;15.20;95.90;;;;;;4899702;29;20028;-78
2021/09/25 03:34:44;;;;;;;14.60;9.05;;;15.20;95.90;;;;;;4898478;29;20030;-78
2021/09/25 03:37:10;;;;;;;12.75;8.65;;;15.30;95.90;;;;;;4885372;29;20243;-78
2021/09/25 03:39:36;;;;;;;10.95;8.18;;;15.20;95.90;;;;;;4863572;29;20132;-79
2021/09/25 03:42:02;;;;;;;11.82;8.45;;;15.30;95.90;;;;;;4883191;29;20032;-79
2021/09/25 03:44:28;;;;;;;12.75;7.70;;;15.20;95.90;;;;;;4885495;29;20040;-79
2021/09/25 03:46:55;;;;;;;11.43;7.68;;;15.20;95.90;;;;;;4881436;29;20041;-78
2021/09/25 03:49:21;;;;;;;12.90;8.50;;;15.20;95.90;;;;;;4894023;29;20056;-79
2021/09/25 03:51:46;;;;;;;12.63;8.70;;;15.30;95.90;;;;;;4879048;29;20492;-79
2021/09/25 03:54:12;;;;;;;13.40;8.93;;;15.30;95.90;;;;;;4891762;29;20556;-79
2021/09/25 03:56:38;;;;;;;12.70;8.77;;;15.20;95.90;;;;;;4878443;29;20029;-79
2021/09/25 03:59:04;;;;;;;11.35;8.10;;;15.30;95.90;;;;;;4892943;29;20402;-78
2021/09/25 04:01:29;;;;;;;13.90;9.10;;;15.20;95.90;;;;;;4876531;29;20071;-79
2021/09/25 04:03:56;;;;;;;12.52;8.38;;;15.20;95.90;;;;;;4894478;29;20029;-78
2021/09/25 04:06:23;;;;;;;12.88;8.45;;;15.20;95.90;;;;;;4876691;29;20037;-79
2021/09/25 04:08:49;;;;;;;14.93;9.02;;;15.30;95.90;;;;;;4844988;29;20470;-78
2021/09/25 04:11:15;;;;;;;13.32;9.95;;;15.30;95.90;;;;;;4893969;29;20104;-78
2021/09/25 04:13:40;;;;;;;15.18;10.05;;;15.30;95.90;;;;;;4892601;29;20036;-78
2021/09/25 04:16:06;;;;;;;14.57;10.40;;;15.30;95.90;;;;;;4862238;29;20040;-78
2021/09/25 04:18:31;;;;;;;13.38;9.15;;;15.30;95.90;;;;;;4893596;29;20036;-80
2021/09/25 04:20:57;;;;;;;16.08;9.73;;;15.30;95.90;;;;;;4862354;29;20108;-78
2021/09/25 04:23:22;;;;;;;15.77;10.48;;;15.30;95.90;;;;;;4876026;29;20501;-79
2021/09/25 04:25:48;;;;;;;14.32;10.25;;;15.30;95.90;;;;;;4876393;29;20068;-79
2021/09/25 04:28:14;;;;;;;14.25;9.80;;;15.30;95.80;;;;;;4861556;29;20068;-80
2021/09/25 04:30:41;;;;;;;15.43;10.77;;;15.30;95.80;;;;;;4876124;29;20036;-79
2021/09/25 04:33:09;;;;;;;14.52;10.52;;;15.30;95.80;;;;;;4877266;29;20116;-80
2021/09/25 04:35:36;;;;;;;15.18;10.05;;;15.30;95.80;;;;;;4876554;29;20050;-80
2021/09/25 04:38:03;;;;;;;15.30;10.68;;;15.40;95.80;;;;;;4876350;29;20040;-79
2021/09/25 04:40:32;;;;;;;14.90;10.60;;;15.40;95.80;;;;;;4876774;29;20032;-79
2021/09/25 04:42:59;;;;;;;18.65;10.65;;;15.40;95.80;;;;;;4876398;29;20033;-80
2021/09/25 04:45:25;;;;;;;16.00;10.18;;;15.40;95.80;;;;;;4857465;29;20041;-79
2021/09/25 04:47:51;;;;;;;16.23;10.35;;;15.40;95.80;;;;;;4859289;29;20105;-79
2021/09/25 04:50:18;;;;;;;16.13;10.70;;;15.40;95.70;;;;;;4892435;29;20108;-79
2021/09/25 04:52:44;;;;;;;14.45;9.57;;;15.40;95.70;;;;;;4877715;29;20033;-79
2021/09/25 04:55:10;;;;;;;16.67;10.63;;;15.40;95.70;;;;;;4875033;29;20051;-79
2021/09/25 04:57:37;;;;;;;17.05;10.02;;;15.40;95.70;;;;;;4877374;29;20550;-78
2021/09/25 05:00:05;;;;;;;15.02;9.88;;;15.40;95.70;;;;;;4893066;29;20040;-79
2021/09/25 05:02:31;;;;;;;18.15;10.93;;;15.40;95.70;;;;;;4892529;29;20064;-78
2021/09/25 05:04:57;;;;;;;14.25;10.25;;;15.40;95.70;;;;;;4876266;29;20064;-78
2021/09/25 05:07:22;;;;;;;19.02;11.77;;;15.40;95.70;;;;;;4893815;29;20056;-78
2021/09/25 05:09:48;;;;;;;19.70;11.27;;;15.40;95.70;;;;;;4894957;29;20571;-78
2021/09/25 05:12:14;;;;;;;18.77;11.43;;;15.40;95.70;;;;;;4864744;29;20041;-79
2021/09/25 05:14:40;;;;;;;17.48;10.75;;;15.40;95.70;;;;;;4897053;29;20076;-78
2021/09/25 05:17:07;;;;;;;16.88;10.73;;;15.40;95.80;;;;;;4861557;29;20033;-78
2021/09/25 05:19:33;;;;;;;16.50;10.82;;;15.40;95.80;;;;;;4885983;29;20064;-79
2021/09/25 05:21:59;;;;;;;18.02;12.35;;;15.40;95.80;;;;;;4863767;29;20413;-79
2021/09/25 05:24:24;;;;;;;19.27;11.85;;;15.40;95.80;;;;;;4878783;29;20044;-77
2021/09/25 05:26:50;;;;;;;19.85;12.65;;;15.40;95.80;;;;;;4879743;29;20115;-78
2021/09/25 05:29:16;;;;;;;17.90;11.93;;;15.40;95.90;;;;;;4880044;29;20550;-78
2021/09/25 05:31:43;;;;;;;18.13;10.85;;;15.40;96.10;;;;;;4896032;29;20029;-78
2021/09/25 05:34:08;;;;;;;18.30;11.43;;;15.40;95.90;;;;;;4896221;29;20032;-78
2021/09/25 05:36:34;;;;;;;18.02;11.27;;;15.40;95.90;;;;;;4878241;29;20452;-78
2021/09/25 05:39:00;;;;;;;16.50;11.00;;;15.40;95.90;;;;;;4876782;29;20033;-78
2021/09/25 05:41:26;;;;;;;17.02;11.02;;;15.40;95.90;;;;;;4864049;29;20044;-78
2021/09/25 05:43:53;;;;;;;17.17;10.27;;;15.40;95.90;;;;;;4886057;29;20489;-79
2021/09/25 05:46:19;;;;;;;19.02;11.27;;;15.40;95.90;;;;;;4865190;29;20041;-80
2021/09/25 05:48:47;;;;;;;16.67;11.85;;;15.40;95.90;;;;;;4878752;29;20036;-79
2021/09/25 05:51:13;;;;;;;19.48;11.90;;;15.50;96.00;;;;;;4865010;29;20037;-79
2021/09/25 05:53:39;;;;;;;17.75;11.77;;;15.40;95.90;;;;;;4877626;29;20053;-79
2021/09/25 05:56:05;;;;;;;19.15;12.75;;;15.40;95.90;;;;;;4879437;29;20409;-78
2021/09/25 05:58:30;;;;;;;20.95;11.75;;;15.50;96.10;;;;;;4881278;29;20064;-79
2021/09/25 06:00:56;;;;;;;17.60;10.75;;;15.50;96.00;;;;;;4882439;29;20025;-80
2021/09/25 06:03:22;;;;;;;19.83;10.95;;;15.50;95.90;;;;;;4899589;29;20033;-78
2021/09/25 06:05:47;;;;;;;14.43;10.25;;;15.50;95.90;;;;;;4847306;29;20049;-78
2021/09/25 06:08:14;;;;;;;16.88;11.52;;;15.60;95.90;;;;;;4879205;29;20417;-79
2021/09/25 06:10:41;;;;;;;18.17;10.70;;;15.50;95.90;;;;;;4878373;29;20044;-79
2021/09/25 06:13:10;;;;;;;17.67;10.68;;;15.60;95.90;;;;;;4878922;29;20060;-79
2021/09/25 06:15:36;;;;;;;16.17;10.75;;;15.60;95.80;;;;;;4894378;29;20090;-78
2021/09/25 06:18:02;;;;;;;17.58;11.30;;;15.60;95.80;;;;;;4896586;29;20124;-79
2021/09/25 06:20:28;;;;;;;18.63;11.18;;;15.70;95.80;;;;;;4860734;29;20045;-78
2021/09/25 06:22:53;;;;;;;18.95;10.80;;;15.70;95.80;;;;;;4861095;29;20025;-79
2021/09/25 06:25:19;;;;;;;17.45;9.98;;;15.70;95.80;;;;;;4841015;29;20880;-79
2021/09/25 06:27:45;;;;;;;16.60;10.80;;;15.80;95.80;;;;;;4895161;29;20027;-79
2021/09/25 06:30:11;;;;;;;17.60;11.48;;;15.80;95.70;;;;;;4863607;29;20044;-78
2021/09/25 06:32:37;;;;;;;16.13;9.98;;;15.80;95.70;;;;;;4861172;29;20044;-79
2021/09/25 06:35:05;;;;;;;17.83;10.52;;;15.90;95.70;;;;;;4876407;29;20127;-79
2021/09/25 06:37:31;;;;;;;16.30;11.00;;;15.90;95.60;;;;;;4896378;29;20040;-79
2021/09/25 06:39:56;;;;;;;20.95;10.93;;;15.90;95.50;;;;;;4858875;29;20496;-79
2021/09/25 06:42:22;;;;;;;19.95;11.35;;;16.10;95.50;;;;;;4861249;29;20125;-79
2021/09/25 06:44:48;;;;;;;23.05;12.45;;;16.10;95.40;;;;;;4869839;29;20119;-79
2021/09/25 06:47:13;;;;;;;21.70;12.23;;;16.10;95.40;;;;;;4879893;29;20133;-79
2021/09/25 06:49:39;;;;;;;21.70;12.77;;;16.20;95.30;;;;;;4876688;29;20075;-80
2021/09/25 06:52:05;;;;;;;21.85;12.65;;;16.20;95.30;;;;;;4877001;29;20486;-78
2021/09/25 06:54:34;;;;;;;22.88;12.80;;;16.20;95.20;;;;;;4877833;29;20092;-79
2021/09/25 06:57:00;;;;;;;24.80;13.95;;;16.30;95.20;;;;;;4871105;29;20036;-78
2021/09/25 06:59:26;;;;;;;24.13;14.43;;;16.30;95.10;;;;;;4879629;29;20040;-78
2021/09/25 07:01:51;;;;;;;23.92;14.00;;;16.30;95.00;;;;;;4892476;29;20107;-79
2021/09/25 07:04:17;;;;;;;23.65;14.13;;;16.40;95.00;;;;;;4878874;29;20473;-78
2021/09/25 07:06:43;;;;;;;26.65;14.60;;;16.40;94.80;;;;;;4845844;29;20095;-79
2021/09/25 07:09:09;;;;;;;25.52;13.73;;;16.50;94.80;;;;;;4894306;29;20047;-78
2021/09/25 07:11:35;;;;;;;25.63;14.98;;;16.60;94.70;;;;;;4882717;29;20020;-78
2021/09/25 07:14:01;;;;;;;25.13;14.93;;;16.60;94.60;;;;;;4861654;29;20104;-78
2021/09/25 07:16:27;;;;;;;25.30;14.98;;;16.60;94.40;;;;;;4864246;29;20040;-78
2021/09/25 07:18:53;;;;;;;23.83;13.70;;;16.70;94.40;;;;;;4874367;29;20047;-78
2021/09/25 07:21:18;;;;;;;24.60;15.05;;;16.80;94.20;;;;;;4870684;29;20033;-78
2021/09/25 07:23:44;;;;;;;25.50;14.68;;;16.80;94.20;;;;;;4839969;29;20469;-79
2021/09/25 07:26:10;;;;;;;27.33;16.00;;;16.90;94.10;;;;;;4872280;29;20044;-77
2021/09/25 07:28:35;;;;;;;24.98;15.18;;;16.90;94.00;;;;;;4869641;29;20059;-78
2021/09/25 07:31:03;;;;;;;27.17;15.57;;;17.00;93.90;;;;;;4858181;29;20032;-79
2021/09/25 07:33:28;;;;;;;24.00;15.13;;;17.10;93.70;;;;;;4880821;29;20051;-79
2021/09/25 07:35:55;;;;;;;20.00;13.35;;;17.10;93.60;;;;;;4880147;29;20037;-79
2021/09/25 07:38:20;;;;;;;20.52;13.82;;;17.20;93.50;;;;;;4880937;29;20036;-78
2021/09/25 07:40:46;;;;;;;21.17;13.50;;;17.20;93.40;;;;;;4880009;29;20029;-79
2021/09/25 07:43:12;;;;;;;22.00;14.55;;;17.30;93.30;;;;;;4848370;29;20037;-79
2021/09/25 07:45:37;;;;;;;25.00;14.05;;;17.40;93.10;;;;;;4878013;29;20044;-79
2021/09/25 07:48:03;;;;;;;20.70;13.23;;;17.40;92.90;;;;;;4877752;29;20616;-79
2021/09/25 07:50:29;;;;;;;22.40;13.98;;;17.40;92.80;;;;;;4861667;29;20040;-78
2021/09/25 07:52:56;;;;;;;23.58;14.93;;;17.50;92.50;;;;;;4881722;29;20460;-79
2021/09/25 07:55:23;;;;;;;20.73;13.02;;;17.50;92.40;;;;;;4865218;29;20040;-79
2021/09/25 07:57:48;;;;;;;16.77;11.55;;;17.60;92.40;;;;;;4892136;29;20029;-77
2021/09/25 08:00:16;;;;;;;18.50;12.18;;;17.70;92.40;;;;;;4856367;29;20084;-78
2021/09/25 08:02:42;;;;;;;17.85;11.38;;;17.80;92.20;;;;;;4874931;29;20148;-77
2021/09/25 08:05:10;;;;;;;16.38;11.43;;;17.80;92.10;;;;;;4862613;29;20040;-77
2021/09/25 08:07:36;;;;;;;17.67;10.80;;;17.90;91.80;;;;;;4876271;29;20059;-78
2021/09/25 08:10:03;;;;;;;17.98;11.07;;;18.00;91.70;;;;;;4892987;29;20036;-79
2021/09/25 08:12:28;;;;;;;14.23;10.50;;;18.20;91.50;;;;;;4877463;29;20092;-78
2021/09/25 08:14:54;;;;;;;15.65;10.75;;;18.30;91.20;;;;;;4871486;29;20123;-78
2021/09/25 08:17:20;;;;;;;13.90;9.95;;;18.40;90.90;;;;;;4868684;29;20032;-77
2021/09/25 08:19:46;;;;;;;22.42;11.82;;;18.50;90.50;;;;;;4884808;29;20040;-80
2021/09/25 08:22:12;;;;;;;12.95;10.27;;;18.60;90.10;;;;;;4862146;29;20124;-79
2021/09/25 08:24:38;;;;;;;12.80;10.10;;;18.70;90.00;;;;;;4862919;29;20040;-78
2021/09/25 08:27:04;;;;;;;13.90;9.93;;;18.80;89.30;;;;;;4886059;29;20040;-78
2021/09/25 08:29:29;;;;;;;16.02;10.60;;;19.00;89.00;;;;;;4872878;29;20047;-77
2021/09/25 08:31:55;;;;;;;15.25;10.15;;;19.20;87.40;;;;;;4865269;29;20177;-76
2021/09/25 08:34:21;;;;;;;12.77;9.27;;;19.30;86.60;;;;;;4879003;29;20043;-76
2021/09/25 08:36:46;;;;;;;13.73;10.00;;;19.50;86.10;;;;;;4877357;29;20060;-79
2021/09/25 08:39:12;;;;;;;12.57;9.40;;;19.70;84.80;;;;;;4845029;29;20504;-77
2021/09/25 08:41:38;;;;;;;13.07;9.48;;;19.80;84.40;;;;;;4878030;29;20020;-77
2021/09/25 08:44:05;;;;;;;12.65;9.40;;;19.80;83.90;;;;;;4878754;29;20486;-77
2021/09/25 08:46:34;;;;;;;15.25;10.50;;;20.00;83.40;;;;;;4880808;29;20048;-76
2021/09/25 08:49:00;;;;;;;15.88;11.85;;;20.00;82.80;;;;;;4880598;29;20071;-76
2021/09/25 08:51:26;;;;;;;13.27;10.05;;;20.20;81.80;;;;;;4881991;29;20040;-77
2021/09/25 08:53:52;;;;;;;13.93;10.65;;;20.20;81.50;;;;;;4880741;29;20044;-79
2021/09/25 08:56:17;;;;;;;12.90;8.75;;;20.30;81.20;;;;;;4884108;29;20051;-77
2021/09/25 08:58:45;;;;;;;15.45;9.65;;;20.40;80.90;;;;;;4866686;29;20481;-76
2021/09/25 09:01:18;;;;;;;12.13;10.18;;;20.50;80.80;;;;;;4880501;29;20367;-78
2021/09/25 09:03:46;;;;;;;12.55;10.23;;;20.60;80.30;;;;;;4882633;29;20040;-76
2021/09/25 09:06:17;;;;;;;36.05;26.65;;;20.60;80.10;;;;;;4881168;29;20045;-79
2021/09/25 09:08:46;;;;;;;53.92;33.92;;;20.70;79.20;;;;;;4883398;29;20120;-79
